Time;durP1;ratioP1;P1;durP2;ratioP2;P2;SDS_P1;SDS_P2;PMS_P1;PMS_P2;Temp;Humidity;BMP_temperature;BMP_pressure;BME280_temperature;BME280_humidity;BME280_pressure;Samples;Min_cycle;Max_cycle;Signal;HPM_P1;HPM_P2
2022/04/27 00:00:28;;;;;;;4.40;4.00;;;;;;;8.91;84.75;93416.41;5070865;28;20443;-37
2022/04/27 00:02:56;;;;;;;4.65;3.95;;;;;;;8.90;85.24;93403.88;5070495;28;20034;-37
2022/04/27 00:05:22;;;;;;;7.68;3.58;;;;;;;8.83;84.94;93421.09;5070441;28;20032;-37
2022/04/27 00:07:48;;;;;;;6.15;4.18;;;;;;;8.72;85.26;93415.88;5070771;28;20107;-38
2022/04/27 00:10:13;;;;;;;5.55;4.93;;;;;;;8.62;84.83;93414.13;5070658;28;20024;-38
2022/04/27 00:12:39;;;;;;;6.80;4.78;;;;;;;8.58;85.59;93413.69;5070623;28;20024;-37
2022/04/27 00:15:05;;;;;;;5.63;4.80;;;;;;;8.46;85.82;93407.75;5070626;28;20032;-38
2022/04/27 00:17:30;;;;;;;6.13;4.95;;;;;;;8.41;85.98;93411.34;5069415;28;20028;-38
2022/04/27 00:19:56;;;;;;;4.90;4.50;;;;;;;8.32;87.53;93415.31;5069104;28;20487;-37
2022/04/27 00:22:22;;;;;;;5.90;4.60;;;;;;;8.36;86.35;93421.22;5070306;28;20056;-38
2022/04/27 00:24:48;;;;;;;8.05;3.92;;;;;;;8.43;86.39;93417.06;5070223;28;20066;-38
2022/04/27 00:27:13;;;;;;;5.10;4.20;;;;;;;8.51;85.72;93409.59;5070056;28;20028;-38
2022/04/27 00:29:38;;;;;;;8.75;4.93;;;;;;;8.34;87.09;93409.25;5070514;28;20028;-38
2022/04/27 00:32:04;;;;;;;6.20;4.20;;;;;;;8.41;86.82;93405.84;5070143;28;20482;-37
2022/04/27 00:34:30;;;;;;;7.03;4.30;;;;;;;8.52;86.34;93404.84;5070080;28;20021;-38
2022/04/27 00:36:55;;;;;;;9.80;4.47;;;;;;;8.49;86.38;93411.44;5070085;28;20029;-38
2022/04/27 00:39:21;;;;;;;4.82;4.40;;;;;;;8.54;85.85;93405.78;5070100;28;20032;-38
2022/04/27 00:42:02;;;;;;;5.22;4.72;;;;;;;8.59;85.78;93407.69;5069968;28;20024;-37
2022/04/27 00:44:32;;;;;;;4.80;4.40;;;;;;;8.60;85.37;93408.44;5069970;28;20543;-37
2022/04/27 00:46:58;;;;;;;5.47;4.22;;;;;;;8.59;86.01;93402.19;5070004;28;20464;-38
2022/04/27 00:49:25;;;;;;;5.43;4.93;;;;;;;8.34;86.76;93381.75;5069984;28;20032;-38
2022/04/27 00:51:51;;;;;;;5.90;4.40;;;;;;;8.53;85.99;93398.81;5069103;28;20042;-38
2022/04/27 00:54:18;;;;;;;6.55;3.97;;;;;;;8.32;85.10;93376.78;5069057;28;20115;-38
2022/04/27 00:56:44;;;;;;;5.90;4.90;;;;;;;8.56;84.90;93394.97;5073105;28;20036;-37
2022/04/27 00:59:09;;;;;;;5.45;4.72;;;;;;;8.51;83.88;93401.34;5074222;28;20103;-38
2022/04/27 01:01:35;;;;;;;5.25;4.75;;;;;;;8.32;84.05;93396.03;5073838;28;20032;-38
2022/04/27 01:04:01;;;;;;;6.03;4.38;;;;;;;8.30;84.42;93403.34;5073833;28;20024;-38
2022/04/27 01:06:27;;;;;;;4.93;4.30;;;;;;;8.20;84.91;93405.06;5073774;28;20032;-38
2022/04/27 01:08:53;;;;;;;6.85;4.80;;;;;;;8.33;85.46;93399.53;5073772;28;20549;-37
2022/04/27 01:11:18;;;;;;;6.20;4.88;;;;;;;8.22;85.08;93394.25;5073971;28;20123;-38
2022/04/27 01:13:45;;;;;;;10.00;3.95;;;;;;;8.18;86.44;93396.59;5073559;28;20035;-37
2022/04/27 01:16:10;;;;;;;4.18;3.78;;;;;;;8.09;86.75;93388.81;5073921;28;20032;-37
2022/04/27 01:18:36;;;;;;;5.30;3.75;;;;;;;8.20;85.88;93396.81;5073487;28;20051;-38
2022/04/27 01:21:03;;;;;;;5.45;4.45;;;;;;;8.38;85.58;93398.69;5073760;28;20029;-38
2022/04/27 01:23:28;;;;;;;4.93;4.38;;;;;;;8.27;85.35;93382.44;5073265;28;20039;-38
2022/04/27 01:25:56;;;;;;;4.80;4.22;;;;;;;8.34;85.56;93403.75;5073406;28;20024;-38
2022/04/27 01:28:27;;;;;;;7.78;5.30;;;;;;;8.15;87.01;93406.66;5073363;28;20035;-38
2022/04/27 01:31:00;;;;;;;9.02;5.95;;;;;;;7.96;86.88;93403.34;5073575;28;20032;-38
2022/04/27 01:33:26;;;;;;;8.75;5.60;;;;;;;7.88;88.47;93404.53;5073168;28;20028;-38
2022/04/27 01:35:52;;;;;;;6.38;5.35;;;;;;;7.88;87.86;93393.53;5073508;28;20056;-37
2022/04/27 01:38:18;;;;;;;5.65;4.90;;;;;;;8.08;88.01;93393.56;5073438;28;20024;-38
2022/04/27 01:40:47;;;;;;;6.78;4.70;;;;;;;8.24;87.42;93399.97;5072211;28;20021;-38
2022/04/27 01:43:16;;;;;;;5.28;4.78;;;;;;;8.25;87.99;93396.69;5072721;28;20102;-38
2022/04/27 01:45:43;;;;;;;6.80;4.75;;;;;;;8.05;88.94;93388.41;5073366;28;20036;-38
2022/04/27 01:48:09;;;;;;;5.22;4.72;;;;;;;8.14;88.80;93401.72;5072900;28;20183;-37
2022/04/27 01:50:35;;;;;;;5.32;4.03;;;;;;;8.22;87.95;93399.75;5072954;28;20497;-38
2022/04/27 01:55:44;;;;;;;11.07;5.57;;;;;;;7.95;84.90;93392.88;5073225;28;20482;-38
2022/04/27 01:58:10;;;;;;;7.65;6.05;;;;;;;7.94;84.78;93394.16;5072853;28;20028;-38
2022/04/27 02:00:35;;;;;;;10.45;6.10;;;;;;;7.85;84.83;93398.06;5072756;28;20033;-37
2022/04/27 02:03:00;;;;;;;10.90;6.30;;;;;;;7.84;85.06;93387.63;5072754;28;20024;-37
2022/04/27 02:05:26;;;;;;;8.45;6.20;;;;;;;7.66;85.51;93378.25;5072206;28;20082;-38
2022/04/27 02:07:52;;;;;;;7.75;5.35;;;;;;;7.87;84.84;93395.53;5072978;28;20024;-38
2022/04/27 02:10:17;;;;;;;6.95;5.50;;;;;;;7.84;84.99;93395.88;5072895;28;20556;-38
2022/04/27 02:12:43;;;;;;;5.35;4.85;;;;;;;7.79;84.90;93386.47;5072771;28;20024;-38
2022/04/27 02:15:09;;;;;;;10.07;5.93;;;;;;;7.46;85.63;93370.66;5072774;28;20476;-38
2022/04/27 02:17:35;;;;;;;5.95;5.22;;;;;;;7.36;85.86;93359.38;5072435;28;20468;-38
2022/04/27 02:20:01;;;;;;;5.40;4.82;;;;;;;7.47;85.57;93391.38;5072435;28;20107;-38
2022/04/27 02:22:26;;;;;;;8.25;5.55;;;;;;;7.34;85.33;93396.88;5072347;28;20545;-38
2022/04/27 02:24:52;;;;;;;7.70;5.70;;;;;;;7.13;85.33;93390.53;5072302;28;20031;-38
2022/04/27 02:27:17;;;;;;;13.90;5.80;;;;;;;7.02;86.63;93391.47;5072276;28;20033;-38
2022/04/27 02:29:43;;;;;;;6.38;5.78;;;;;;;7.01;86.59;93387.28;5072543;28;20032;-38
2022/04/27 02:32:09;;;;;;;8.90;6.90;;;;;;;6.98;87.74;93382.81;5072141;28;20020;-38
2022/04/27 02:34:34;;;;;;;9.82;5.35;;;;;;;6.83;87.49;93380.59;5072081;28;20099;-38
2022/04/27 02:37:00;;;;;;;7.45;5.25;;;;;;;6.79;87.81;93377.44;5072086;28;20123;-38
2022/04/27 02:39:25;;;;;;;5.65;5.03;;;;;;;6.86;88.01;93381.56;5072362;28;20024;-38
2022/04/27 02:41:50;;;;;;;6.40;4.80;;;;;;;7.05;87.90;93378.72;5071975;28;20082;-37
2022/04/27 02:44:16;;;;;;;6.07;5.47;;;;;;;7.17;87.47;93377.97;5071810;28;20084;-38
2022/04/27 02:46:41;;;;;;;9.25;5.15;;;;;;;7.23;86.59;93369.63;5071950;28;20040;-37
2022/04/27 02:51:57;;;;;;;7.25;6.40;;;;;;;7.16;85.10;93371.00;5072200;28;20043;-38
2022/04/27 02:54:23;;;;;;;8.32;6.47;;;;;;;7.23;85.71;93375.88;5072031;28;20496;-37
2022/04/27 02:56:49;;;;;;;5.88;5.38;;;;;;;7.10;84.90;93373.13;5072008;28;20024;-37
2022/04/27 02:59:15;;;;;;;14.18;6.95;;;;;;;7.20;84.17;93371.44;5071579;28;20078;-38
2022/04/27 03:01:41;;;;;;;14.70;6.90;;;;;;;7.07;84.40;93376.94;5071960;28;20032;-38
2022/04/27 03:04:09;;;;;;;8.18;6.13;;;;;;;6.96;84.57;93374.38;5071485;28;20017;-38
2022/04/27 03:06:35;;;;;;;11.55;7.93;;;;;;;6.84;85.21;93381.34;5071786;28;20059;-38
2022/04/27 03:09:01;;;;;;;9.25;6.10;;;;;;;6.92;84.99;93376.72;5071491;28;20493;-37
2022/04/27 03:11:27;;;;;;;9.40;6.18;;;;;;;7.04;84.25;93380.72;5071341;28;20029;-37
2022/04/27 03:13:52;;;;;;;11.23;6.20;;;;;;;7.13;83.31;93385.78;5070437;28;20020;-37
2022/04/27 03:16:18;;;;;;;20.42;6.55;;;;;;;7.11;83.14;93388.31;5071134;28;20064;-38
2022/04/27 03:18:43;;;;;;;32.28;7.80;;;;;;;7.13;83.44;93396.78;5070768;28;20090;-38
2022/04/27 03:21:10;;;;;;;38.53;20.85;;;;;;;7.03;83.46;93392.97;5071196;28;20024;-37
2022/04/27 03:23:35;;;;;;;26.00;10.63;;;;;;;6.87;84.49;93397.50;5071404;28;20028;-37
2022/04/27 03:26:00;;;;;;;33.22;8.38;;;;;;;6.79;85.35;93402.13;5071191;28;20391;-37
2022/04/27 03:28:26;;;;;;;34.10;8.57;;;;;;;6.82;85.94;93394.84;5071319;28;20036;-38
2022/04/27 03:30:51;;;;;;;56.55;14.30;;;;;;;6.92;86.32;93395.91;5071300;28;20024;-37
2022/04/27 03:33:17;;;;;;;31.95;11.65;;;;;;;6.91;87.01;93399.91;5070839;28;20024;-38
2022/04/27 03:35:43;;;;;;;26.88;9.55;;;;;;;6.91;87.86;93397.16;5071210;28;20064;-37
2022/04/27 03:38:09;;;;;;;51.17;15.95;;;;;;;7.00;88.54;93399.50;5071159;28;20477;-38
2022/04/27 03:40:35;;;;;;;25.45;14.40;;;;;;;7.08;88.77;93408.59;5071148;28;20154;-38
2022/04/27 03:43:01;;;;;;;10.48;7.65;;;;;;;7.23;88.84;93417.06;5070474;28;20464;-38
2022/04/27 03:45:26;;;;;;;8.63;5.82;;;;;;;7.29;87.42;93414.22;5071053;28;20034;-38
2022/04/27 03:47:52;;;;;;;10.07;7.32;;;;;;;7.29;86.65;93412.22;5070711;28;20394;-37
2022/04/27 03:50:17;;;;;;;14.02;8.20;;;;;;;7.06;86.14;93407.66;5070968;28;20056;-38
2022/04/27 03:52:43;;;;;;;19.77;9.43;;;;;;;7.25;86.01;93411.78;5070688;28;20409;-38
2022/04/27 03:55:08;;;;;;;22.23;11.60;;;;;;;7.34;85.71;93414.09;5070887;28;20025;-38
2022/04/27 03:57:34;;;;;;;19.15;13.70;;;;;;;7.40;86.13;93420.22;5070659;28;20509;-37
2022/04/27 03:59:59;;;;;;;21.58;13.80;;;;;;;7.56;86.87;93418.41;5070799;28;20053;-38
2022/04/27 04:02:25;;;;;;;16.15;11.82;;;;;;;7.74;86.12;93419.56;5070485;28;20028;-38
2022/04/27 04:04:50;;;;;;;14.60;11.65;;;;;;;7.77;86.20;93424.75;5070514;28;20017;-38
2022/04/27 04:07:16;;;;;;;25.10;16.38;;;;;;;7.95;86.24;93429.34;5069519;28;20077;-38
2022/04/27 04:09:41;;;;;;;99.90;52.85;;;;;;;8.17;85.40;93430.88;5070756;28;20032;-38
2022/04/27 04:12:07;;;;;;;61.80;46.33;;;;;;;8.23;85.85;93426.72;5070351;28;20012;-38
2022/04/27 04:14:33;;;;;;;33.45;8.55;;;;;;;8.31;84.80;93407.59;5070571;28;20397;-38
2022/04/27 04:16:59;;;;;;;34.08;8.57;;;;;;;8.46;84.46;93432.50;5070593;28;20029;-38
2022/04/27 04:19:24;;;;;;;40.25;10.07;;;;;;;8.47;84.60;93444.97;5070324;28;20509;-38
2022/04/27 04:21:50;;;;;;;42.45;11.30;;;;;;;8.58;83.06;93427.47;5070272;28;20115;-38
2022/04/27 04:24:15;;;;;;;53.83;10.35;;;;;;;8.39;82.52;93446.91;5070160;28;20052;-38
2022/04/27 04:29:26;;;;;;;82.75;10.63;;;;;;;8.58;84.17;93441.97;5070048;28;20591;-38
2022/04/27 04:31:51;;;;;;;75.15;11.05;;;;;;;8.69;84.60;93444.47;5070546;28;20035;-38
2022/04/27 04:34:16;;;;;;;67.72;8.43;;;;;;;8.76;84.88;93443.06;5070295;28;20017;-38
2022/04/27 04:36:42;;;;;;;81.13;8.75;;;;;;;8.78;86.05;93446.75;5070211;28;20024;-38
2022/04/27 04:39:07;;;;;;;72.22;7.53;;;;;;;8.82;86.12;93435.38;5070073;28;20170;-38
2022/04/27 04:41:33;;;;;;;74.93;8.13;;;;;;;9.04;86.47;93446.59;5069733;28;20027;-38
2022/04/27 04:43:58;;;;;;;35.35;4.95;;;;;;;9.13;85.51;93453.66;5069857;28;20036;-38
2022/04/27 04:46:24;;;;;;;75.43;6.97;;;;;;;9.02;85.44;93429.88;5070001;28;20028;-38
2022/04/27 04:48:50;;;;;;;67.88;5.68;;;;;;;9.23;83.16;93462.16;5070286;28;20039;-38
2022/04/27 04:51:15;;;;;;;62.53;5.25;;;;;;;9.12;83.21;93463.91;5070268;28;20485;-38
2022/04/27 04:53:41;;;;;;;44.80;4.68;;;;;;;9.10;83.31;93466.47;5070188;28;20688;-38
2022/04/27 04:56:06;;;;;;;37.70;6.57;;;;;;;9.05;82.47;93459.09;5070214;28;20486;-38
2022/04/27 04:58:31;;;;;;;41.97;4.78;;;;;;;9.04;82.27;93471.38;5070223;28;20029;-37
2022/04/27 05:00:57;;;;;;;48.65;4.38;;;;;;;9.05;83.57;93463.88;5070126;28;20482;-37
2022/04/27 05:03:22;;;;;;;27.70;8.50;;;;;;;9.29;84.25;93476.53;5069880;28;20020;-38
2022/04/27 05:05:48;;;;;;;40.70;5.03;;;;;;;9.50;83.12;93469.72;5069799;28;20016;-38
2022/04/27 05:08:13;;;;;;;38.90;4.50;;;;;;;9.70;82.13;93468.19;5069900;28;20027;-38
2022/04/27 05:10:39;;;;;;;44.10;5.15;;;;;;;9.94;81.62;93478.78;5070122;28;20493;-38
2022/04/27 05:13:04;;;;;;;36.22;3.92;;;;;;;9.92;79.51;93473.06;5069619;28;20021;-38
2022/04/27 05:15:30;;;;;;;114.03;7.25;;;;;;;10.08;79.20;93474.63;5069820;28;20053;-38
2022/04/27 05:17:56;;;;;;;103.65;6.53;;;;;;;10.33;77.65;93461.16;5069663;28;20028;-38
2022/04/27 05:20:22;;;;;;;16.85;4.47;;;;;;;10.61;78.54;93467.31;5070028;28;20044;-38
2022/04/27 05:22:47;;;;;;;16.73;7.22;;;;;;;10.94;77.98;93470.31;5069635;28;20097;-38
2022/04/27 05:25:13;;;;;;;25.23;9.48;;;;;;;11.29;77.12;93470.16;5069936;28;20024;-38
2022/04/27 05:27:38;;;;;;;31.52;5.47;;;;;;;11.51;74.42;93467.94;5069695;28;20027;-38
2022/04/27 05:32:49;;;;;;;63.33;9.02;;;;;;;11.64;72.95;93462.19;5069772;28;20039;-38
2022/04/27 05:35:15;;;;;;;80.97;10.77;;;;;;;11.73;72.03;93469.97;5069546;28;20063;-38
2022/04/27 05:37:41;;;;;;;16.55;6.22;;;;;;;12.00;74.08;93466.22;5069568;28;20166;-38
2022/04/27 05:40:07;;;;;;;22.45;5.28;;;;;;;12.07;72.25;93476.53;5068757;28;20104;-38
2022/04/27 05:42:33;;;;;;;20.42;5.15;;;;;;;12.40;72.61;93482.13;5072619;28;20020;-38
2022/04/27 05:44:59;;;;;;;17.60;4.80;;;;;;;12.53;71.01;93474.34;5073364;28;20036;-38
2022/04/27 05:47:25;;;;;;;25.23;5.47;;;;;;;12.83;69.98;93484.50;5073334;28;20405;-38
2022/04/27 05:49:51;;;;;;;13.25;5.68;;;;;;;12.91;68.58;93485.19;5072987;28;20501;-38
2022/04/27 05:52:17;;;;;;;10.73;6.03;;;;;;;13.08;67.98;93487.38;5072960;28;20028;-38
2022/04/27 05:54:42;;;;;;;16.25;6.50;;;;;;;13.52;67.49;93485.53;5073174;28;20103;-38
2022/04/27 05:57:07;;;;;;;12.20;6.18;;;;;;;13.66;66.79;93490.22;5072911;28;20467;-38
2022/04/27 05:59:34;;;;;;;9.63;7.15;;;;;;;13.93;67.36;93476.47;5073142;28;20078;-38
2022/04/27 06:01:59;;;;;;;9.88;7.68;;;;;;;14.12;68.46;93479.44;5073025;28;20082;-39
2022/04/27 06:04:26;;;;;;;10.60;3.58;;;;;;;14.45;66.84;93468.91;5072652;28;20059;-38
2022/04/27 06:06:55;;;;;;;3.03;2.72;;;;;;;15.27;64.29;93468.38;5072765;28;20027;-39
2022/04/27 06:09:20;;;;;;;3.17;2.88;;;;;;;16.38;61.67;93461.47;5072683;28;20020;-39
2022/04/27 06:11:46;;;;;;;3.70;2.08;;;;;;;17.76;57.64;93471.91;5072895;28;20021;-39
2022/04/27 06:14:12;;;;;;;1.95;1.67;;;;;;;19.12;53.71;93471.78;5072522;28;20099;-40
2022/04/27 06:16:37;;;;;;;4.15;2.10;;;;;;;20.36;49.72;93464.66;5072509;28;20052;-39
2022/04/27 06:19:03;;;;;;;2.67;2.08;;;;;;;21.13;48.39;93463.44;5072750;28;20025;-40
2022/04/27 06:21:31;;;;;;;4.50;1.65;;;;;;;21.67;46.72;93460.78;5072425;28;20040;-36
2022/04/27 06:23:58;;;;;;;2.90;2.50;;;;;;;21.84;46.54;93456.75;5072680;28;20028;-39
2022/04/27 06:26:24;;;;;;;2.90;1.98;;;;;;;22.36;45.19;93461.53;5072349;28;20501;-39
2022/04/27 06:28:49;;;;;;;2.00;1.90;;;;;;;22.32;45.50;93464.16;5072627;28;20032;-39
2022/04/27 06:31:15;;;;;;;4.13;1.80;;;;;;;22.05;44.31;93453.63;5072525;28;20085;-40
2022/04/27 06:33:40;;;;;;;4.22;2.30;;;;;;;22.03;45.71;93452.78;5072468;28;20129;-38
2022/04/27 06:36:06;;;;;;;3.33;2.10;;;;;;;22.57;43.88;93464.75;5072113;28;20429;-39
2022/04/27 06:38:31;;;;;;;4.50;2.45;;;;;;;22.88;43.30;93458.53;5072163;28;20086;-38
2022/04/27 06:40:57;;;;;;;3.03;2.72;;;;;;;23.51;42.61;93464.34;5072354;28;20013;-39
2022/04/27 06:43:22;;;;;;;2.80;2.40;;;;;;;24.46;41.05;93467.25;5071734;28;20501;-39
2022/04/27 06:45:48;;;;;;;2.30;2.10;;;;;;;24.99;37.89;93467.41;5072254;28;20020;-39
2022/04/27 06:48:13;;;;;;;5.93;3.75;;;;;;;25.17;39.41;93465.31;5072144;28;20063;-39
2022/04/27 06:50:39;;;;;;;4.30;2.40;;;;;;;25.47;38.85;93463.69;5071891;28;20464;-39
2022/04/27 06:53:04;;;;;;;4.25;2.58;;;;;;;26.18;36.62;93464.28;5071762;28;20021;-38
2022/04/27 06:55:30;;;;;;;4.68;3.42;;;;;;;26.89;35.56;93467.53;5072042;28;20028;-39
2022/04/27 06:57:56;;;;;;;10.13;2.38;;;;;;;27.40;34.29;93460.69;5072092;28;20016;-39
2022/04/27 07:00:22;;;;;;;3.72;2.50;;;;;;;28.23;32.91;93472.47;5071733;28;20165;-37
2022/04/27 07:02:47;;;;;;;3.20;1.48;;;;;;;28.81;31.90;93470.53;5071632;28;20025;-37
2022/04/27 07:05:20;;;;;;;4.97;1.80;;;;;;;29.70;29.58;93471.38;5071905;28;20112;-37
2022/04/27 07:07:47;;;;;;;2.40;1.73;;;;;;;29.80;28.89;93471.63;5071824;28;20025;-37
2022/04/27 07:10:13;;;;;;;1.55;0.90;;;;;;;29.59;28.83;93463.28;5071514;28;20460;-37
2022/04/27 07:12:39;;;;;;;1.88;0.85;;;;;;;29.91;29.39;93461.19;5071611;28;20029;-37
2022/04/27 07:15:06;;;;;;;2.45;1.05;;;;;;;29.98;28.78;93465.63;5071655;28;20158;-37
2022/04/27 07:17:31;;;;;;;2.17;1.10;;;;;;;29.59;28.33;93464.00;5071315;28;20034;-37
2022/04/27 07:19:57;;;;;;;2.35;1.00;;;;;;;29.32;28.18;93472.59;5071504;28;20028;-37
2022/04/27 07:22:23;;;;;;;2.35;1.00;;;;;;;29.47;29.74;93471.53;5071255;28;20409;-38
2022/04/27 07:24:49;;;;;;;1.63;1.10;;;;;;;29.77;29.28;93469.44;5070287;28;20020;-37
2022/04/27 07:27:15;;;;;;;6.45;1.40;;;;;;;29.97;29.87;93467.03;5071128;28;20029;-38
2022/04/27 07:29:41;;;;;;;3.70;1.27;;;;;;;30.77;28.61;93462.28;5071190;28;20027;-37
2022/04/27 07:32:06;;;;;;;1.92;1.20;;;;;;;31.61;27.12;93459.50;5071040;28;20024;-37
2022/04/27 07:34:32;;;;;;;1.27;0.90;;;;;;;32.23;26.58;93460.44;5070116;28;20073;-37
2022/04/27 07:36:58;;;;;;;3.38;1.60;;;;;;;32.39;25.83;93459.94;5071192;28;20726;-37
2022/04/27 07:39:26;;;;;;;4.55;1.90;;;;;;;32.96;26.18;93455.63;5070942;28;20437;-38
2022/04/27 07:41:52;;;;;;;1.60;1.50;;;;;;;33.21;25.66;93460.19;5070531;28;20078;-37
2022/04/27 07:44:17;;;;;;;4.38;1.35;;;;;;;33.36;24.54;93458.88;5069551;28;20040;-37
2022/04/27 07:46:47;;;;;;;2.65;1.42;;;;;;;33.53;25.57;93461.22;5070880;28;20189;-37
2022/04/27 07:49:13;;;;;;;2.15;1.17;;;;;;;33.82;23.55;93453.56;5071010;28;20111;-37
2022/04/27 07:51:39;;;;;;;2.20;1.70;;;;;;;34.37;24.66;93445.31;5071007;28;20036;-38
2022/04/27 07:54:04;;;;;;;5.43;1.52;;;;;;;33.91;23.24;93452.19;5070876;28;20020;-37
2022/04/27 07:56:30;;;;;;;2.85;1.20;;;;;;;34.46;22.64;93429.59;5070767;28;20058;-37
2022/04/27 07:58:55;;;;;;;4.93;1.60;;;;;;;34.35;23.08;93441.00;5070554;28;20021;-37
2022/04/27 08:01:21;;;;;;;4.25;1.52;;;;;;;34.39;22.12;93443.19;5070486;28;20032;-37
2022/04/27 08:03:46;;;;;;;3.45;1.45;;;;;;;33.78;23.46;93453.53;5070245;28;20020;-38
2022/04/27 08:06:12;;;;;;;3.17;1.30;;;;;;;33.77;22.81;93428.44;5070467;28;20032;-38
2022/04/27 08:08:38;;;;;;;4.13;1.40;;;;;;;34.28;21.85;93439.53;5070756;28;20027;-37
2022/04/27 08:11:04;;;;;;;2.13;1.52;;;;;;;34.59;24.09;93446.16;5070450;28;20029;-37
2022/04/27 08:13:29;;;;;;;3.67;1.40;;;;;;;34.56;21.08;93441.84;5070274;28;20013;-37
2022/04/27 08:15:55;;;;;;;3.78;1.50;;;;;;;34.79;22.57;93439.78;5070730;28;20021;-37
2022/04/27 08:18:20;;;;;;;6.43;1.38;;;;;;;35.20;22.99;93440.59;5070578;28;20489;-38
2022/04/27 08:23:32;;;;;;;4.82;2.05;;;;;;;35.59;21.53;93439.97;5070337;28;20027;-38
2022/04/27 08:26:00;;;;;;;4.18;2.65;;;;;;;35.54;20.83;93444.25;5070250;28;20445;-37
2022/04/27 08:28:27;;;;;;;6.45;2.40;;;;;;;34.97;21.10;93445.56;5070401;28;20498;-38
2022/04/27 08:30:53;;;;;;;4.07;1.67;;;;;;;35.56;21.28;93432.06;5070178;28;20028;-38
2022/04/27 08:33:19;;;;;;;3.50;1.42;;;;;;;36.12;20.93;93431.31;5070121;28;20098;-38
2022/04/27 08:35:45;;;;;;;8.25;1.65;;;;;;;35.97;21.23;93424.16;5069027;28;20040;-38
2022/04/27 08:38:11;;;;;;;6.82;1.40;;;;;;;36.16;19.51;93428.41;5068886;28;20020;-38
2022/04/27 08:40:39;;;;;;;6.07;1.50;;;;;;;36.30;19.92;93422.66;5070202;28;20032;-38
2022/04/27 08:43:04;;;;;;;5.70;1.75;;;;;;;35.85;20.05;93427.00;5069800;28;20047;-37
2022/04/27 08:45:30;;;;;;;4.28;1.63;;;;;;;34.20;19.62;93428.03;5070422;28;20436;-38
2022/04/27 08:47:56;;;;;;;4.95;1.75;;;;;;;33.83;20.65;93428.53;5070327;28;20108;-37
2022/04/27 08:50:24;;;;;;;6.97;1.70;;;;;;;34.17;22.24;93426.59;5070009;28;20485;-37
2022/04/27 08:52:50;;;;;;;5.93;1.58;;;;;;;33.94;21.28;93424.28;5070123;28;20401;-39
2022/04/27 08:55:18;;;;;;;5.30;1.83;;;;;;;34.13;21.89;93423.69;5070278;28;20033;-39
2022/04/27 08:57:44;;;;;;;4.78;1.98;;;;;;;33.51;20.79;93429.72;5070049;28;20025;-38
2022/04/27 09:00:13;;;;;;;5.15;1.77;;;;;;;33.55;22.43;93420.41;5070168;28;20024;-37
2022/04/27 09:02:39;;;;;;;10.90;2.65;;;;;;;33.39;22.91;93426.00;5069941;28;20516;-37
2022/04/27 09:05:05;;;;;;;7.63;1.92;;;;;;;34.02;23.73;93422.22;5069875;28;20104;-38
2022/04/27 09:07:37;;;;;;;4.75;1.70;;;;;;;34.48;21.70;93415.28;5069785;28;20504;-38
2022/04/27 09:10:04;;;;;;;8.25;1.77;;;;;;;33.84;20.63;93415.63;5069894;28;20029;-37
2022/04/27 09:12:29;;;;;;;3.70;1.52;;;;;;;33.40;21.94;93410.97;5070017;28;20024;-36
2022/04/27 09:15:06;;;;;;;5.68;1.48;;;;;;;33.55;23.42;93414.69;5069741;28;20070;-37
2022/04/27 09:23:02;;;;;;;7.13;1.65;;;;;;;33.10;22.34;93407.13;5073865;28;20082;-38
2022/04/27 09:25:35;;;;;;;5.75;2.17;;;;;;;33.28;22.83;93410.91;5073434;28;20024;-37
2022/04/27 09:28:05;;;;;;;4.00;1.48;;;;;;;33.32;21.49;93408.06;5073665;28;20043;-37
2022/04/27 09:30:32;;;;;;;3.78;1.50;;;;;;;33.04;22.04;93410.69;5073442;28;20027;-38
2022/04/27 09:32:58;;;;;;;8.13;1.85;;;;;;;33.37;22.25;93405.97;5073548;28;20082;-40
2022/04/27 09:35:32;;;;;;;3.25;1.50;;;;;;;33.60;21.58;93410.44;5073305;28;20021;-37
2022/04/27 09:38:16;;;;;;;7.53;1.60;;;;;;;34.55;20.23;93406.00;5073303;28;20059;-37
2022/04/27 09:40:56;;;;;;;3.83;1.58;;;;;;;35.82;21.04;93396.84;5073327;28;20034;-37
2022/04/27 09:43:51;;;;;;;5.68;1.70;;;;;;;33.90;19.65;93407.78;5072850;28;20036;-37
2022/04/27 09:46:25;;;;;;;4.93;1.55;;;;;;;33.74;20.62;93401.97;5071964;28;20036;-38
2022/04/27 09:49:02;;;;;;;2.95;1.63;;;;;;;32.48;20.40;93407.94;5072921;28;20030;-36
2022/04/27 09:51:28;;;;;;;4.35;1.48;;;;;;;31.53;23.22;93393.75;5073041;28;20031;-38
2022/04/27 09:53:54;;;;;;;3.70;1.40;;;;;;;32.28;22.33;93390.50;5072925;28;20020;-37
2022/04/27 09:56:21;;;;;;;3.92;1.50;;;;;;;32.84;22.18;93402.59;5071668;28;20554;-37
2022/04/27 09:58:47;;;;;;;3.40;1.38;;;;;;;32.83;21.23;93386.13;5071715;28;20497;-37
2022/04/27 10:01:16;;;;;;;4.72;1.30;;;;;;;33.11;20.56;93403.59;5071618;28;20035;-37
2022/04/27 10:03:42;;;;;;;3.53;1.40;;;;;;;33.21;21.29;93394.38;5073122;28;20485;-38
2022/04/27 10:06:07;;;;;;;5.93;1.50;;;;;;;33.53;18.79;93394.66;5071819;28;20413;-37
2022/04/27 10:08:35;;;;;;;3.08;1.50;;;;;;;34.44;21.12;93386.59;5073014;28;20028;-37
2022/04/27 10:11:00;;;;;;;3.60;1.15;;;;;;;34.52;17.71;93381.63;5072962;28;20016;-38
2022/04/27 10:13:26;;;;;;;6.75;2.30;;;;;;;33.14;20.75;93384.28;5072624;28;20096;-38
2022/04/27 10:15:52;;;;;;;4.20;1.63;;;;;;;31.82;22.53;93384.16;5071434;28;20035;-37
2022/04/27 10:18:18;;;;;;;3.88;2.13;;;;;;;31.22;24.46;93379.00;5072807;28;20028;-37
2022/04/27 10:20:45;;;;;;;1.77;1.10;;;;;;;31.85;22.87;93383.50;5071606;28;20016;-40
2022/04/27 10:23:24;;;;;;;2.45;1.30;;;;;;;31.92;21.84;93378.59;5072738;28;20085;-38
2022/04/27 10:26:28;;;;;;;5.75;1.35;;;;;;;32.16;22.37;93373.22;5072566;28;20095;-37
2022/04/27 10:29:00;;;;;;;5.15;1.38;;;;;;;32.25;23.33;93371.88;5072674;28;20016;-37
2022/04/27 10:31:40;;;;;;;4.10;1.23;;;;;;;30.88;21.18;93377.69;5072607;28;20078;-37
2022/04/27 10:34:18;;;;;;;4.28;1.50;;;;;;;30.19;23.96;93378.50;5072514;28;20027;-37
2022/04/27 10:36:45;;;;;;;13.85;3.80;;;;;;;30.82;26.33;93364.03;5072511;28;20036;-37
2022/04/27 10:39:13;;;;;;;3.17;1.33;;;;;;;32.11;20.63;93369.59;5072418;28;20089;-38
2022/04/27 10:41:39;;;;;;;1.67;1.05;;;;;;;32.97;19.55;93369.09;5071753;28;20509;-37
2022/04/27 10:44:04;;;;;;;3.92;1.13;;;;;;;33.38;19.86;93368.03;5071931;28;20043;-38
2022/04/27 10:46:38;;;;;;;3.97;1.52;;;;;;;31.70;20.18;93367.59;5072002;28;20029;-37
2022/04/27 10:49:25;;;;;;;5.57;1.65;;;;;;;30.18;22.44;93372.09;5072260;28;20499;-37
2022/04/27 10:52:08;;;;;;;4.05;1.35;;;;;;;29.03;24.54;93360.25;5072260;28;20513;-37
2022/04/27 10:54:37;;;;;;;5.85;1.75;;;;;;;28.43;26.76;93371.53;5071819;28;20021;-38
2022/04/27 10:57:14;;;;;;;5.15;1.67;;;;;;;28.46;27.33;93361.66;5072133;28;20490;-40
2022/04/27 10:59:49;;;;;;;3.45;1.35;;;;;;;28.59;25.22;93348.50;5071827;28;20032;-37
2022/04/27 11:02:37;;;;;;;6.07;1.52;;;;;;;27.92;26.15;93348.06;5072088;28;20035;-37
2022/04/27 11:05:23;;;;;;;2.47;1.35;;;;;;;27.42;27.52;93355.81;5072068;28;20016;-37
2022/04/27 11:07:55;;;;;;;3.55;1.48;;;;;;;26.47;25.97;93358.44;5071381;28;20029;-36
2022/04/27 11:10:21;;;;;;;4.18;1.77;;;;;;;26.18;29.90;93356.03;5070382;28;20044;-37
2022/04/27 11:12:51;;;;;;;5.15;1.50;;;;;;;25.94;27.93;93352.31;5071512;28;20530;-37
2022/04/27 11:15:27;;;;;;;3.53;1.50;;;;;;;25.51;28.48;93352.88;5071513;28;20056;-39
2022/04/27 11:17:56;;;;;;;4.45;1.27;;;;;;;24.62;29.45;93362.78;5071735;28;20024;-39
2022/04/27 11:20:43;;;;;;;5.90;1.70;;;;;;;24.18;31.37;93358.84;5071586;28;20036;-39
2022/04/27 11:23:22;;;;;;;4.85;1.55;;;;;;;24.21;30.72;93357.56;5071148;28;20115;-39
2022/04/27 11:25:51;;;;;;;2.40;1.25;;;;;;;24.30;30.05;93350.16;5071523;28;20033;-39
2022/04/27 11:28:17;;;;;;;6.63;1.88;;;;;;;24.32;29.05;93350.94;5071472;28;20035;-39
2022/04/27 11:30:43;;;;;;;2.60;1.48;;;;;;;23.99;31.66;93360.13;5071451;28;20024;-39
2022/04/27 11:33:10;;;;;;;6.82;1.60;;;;;;;24.02;31.13;93358.09;5071273;28;20115;-39
2022/04/27 11:35:40;;;;;;;8.02;2.67;;;;;;;23.98;32.36;93355.84;5071370;28;20107;-39
2022/04/27 11:38:08;;;;;;;9.40;2.05;;;;;;;24.07;35.53;93354.13;5070281;28;20039;-39
2022/04/27 11:40:36;;;;;;;5.38;1.60;;;;;;;23.87;31.68;93359.59;5071250;28;20024;-38
2022/04/27 11:43:04;;;;;;;5.32;1.92;;;;;;;23.81;32.07;93361.44;5070197;28;20109;-38
2022/04/27 11:45:29;;;;;;;7.68;1.80;;;;;;;23.73;32.45;93349.81;5071100;28;20040;-38
2022/04/27 11:48:00;;;;;;;5.93;2.38;;;;;;;24.12;33.50;93347.28;5071096;28;20475;-38
2022/04/27 11:50:27;;;;;;;7.50;1.88;;;;;;;24.54;30.11;93354.69;5071110;28;20052;-38
2022/04/27 11:53:18;;;;;;;2.78;1.63;;;;;;;24.98;29.08;93352.94;5070653;28;20020;-38